Time;durP1;ratioP1;P1;durP2;ratioP2;P2;SDS_P1;SDS_P2;PMS_P1;PMS_P2;Temp;Humidity;BMP_temperature;BMP_pressure;BME280_temperature;BME280_humidity;BME280_pressure;Samples;Min_cycle;Max_cycle;Signal;HPM_P1;HPM_P2
2022/07/25 00:00:32;;;;;;;12.90;11.80;;;23.40;99.90;;;;;;6022076;23;20439;-71
2022/07/25 00:02:59;;;;;;;12.40;11.60;;;23.50;99.90;;;;;;6022819;23;20463;-72
2022/07/25 00:05:26;;;;;;;13.13;12.30;;;23.30;99.90;;;;;;6022036;23;20479;-71
2022/07/25 00:07:54;;;;;;;12.13;11.33;;;23.20;99.90;;;;;;6022763;23;20467;-72
2022/07/25 00:10:21;;;;;;;11.93;11.00;;;23.20;99.90;;;;;;6015607;23;20441;-71
2022/07/25 00:12:49;;;;;;;12.00;11.20;;;23.10;99.90;;;;;;6019768;23;20436;-71
2022/07/25 00:15:16;;;;;;;13.97;13.07;;;23.00;99.90;;;;;;6022372;23;20483;-71
2022/07/25 00:17:43;;;;;;;11.53;10.80;;;23.00;99.90;;;;;;6025645;23;20444;-71
2022/07/25 00:20:11;;;;;;;11.90;11.00;;;22.90;99.90;;;;;;6021857;23;20460;-71
2022/07/25 00:22:38;;;;;;;12.23;11.43;;;22.90;99.90;;;;;;6023893;23;20466;-71
2022/07/25 00:25:06;;;;;;;11.73;10.93;;;22.90;99.90;;;;;;6023052;23;20460;-71
2022/07/25 00:27:33;;;;;;;12.20;11.30;;;22.80;99.90;;;;;;6022501;23;20444;-71
2022/07/25 00:30:02;;;;;;;11.93;11.10;;;22.70;99.90;;;;;;6024498;23;20528;-71
2022/07/25 00:32:29;;;;;;;12.10;11.20;;;22.70;99.90;;;;;;6022229;23;20494;-71
2022/07/25 00:34:56;;;;;;;11.17;10.43;;;22.70;99.90;;;;;;6024229;23;20475;-71
2022/07/25 00:37:23;;;;;;;12.10;11.20;;;22.60;99.90;;;;;;6023330;23;20472;-71
2022/07/25 00:39:50;;;;;;;11.37;10.57;;;22.50;99.90;;;;;;6024954;23;20443;-71
2022/07/25 00:42:17;;;;;;;12.33;11.43;;;22.50;99.90;;;;;;6021427;23;20495;-73
2022/07/25 00:44:44;;;;;;;12.43;11.57;;;22.40;99.90;;;;;;6022662;23;20460;-72
2022/07/25 00:47:12;;;;;;;10.93;10.23;;;22.40;99.90;;;;;;6022177;23;20432;-71
2022/07/25 00:49:40;;;;;;;11.20;10.40;;;22.40;99.90;;;;;;6025064;23;20711;-71
2022/07/25 00:52:07;;;;;;;11.43;10.73;;;22.40;99.90;;;;;;6023753;23;20523;-72
2022/07/25 00:54:34;;;;;;;11.50;10.70;;;22.40;99.90;;;;;;6020663;23;20522;-72
2022/07/25 00:57:01;;;;;;;11.17;10.27;;;22.30;99.90;;;;;;6025046;23;20459;-72
2022/07/25 00:59:28;;;;;;;10.50;9.80;;;22.30;99.90;;;;;;6021990;23;20441;-72
2022/07/25 01:01:55;;;;;;;10.90;10.20;;;22.20;99.90;;;;;;6024172;23;20443;-72
2022/07/25 01:04:24;;;;;;;10.67;9.97;;;22.20;99.90;;;;;;6024362;23;20476;-72
2022/07/25 01:06:51;;;;;;;12.20;11.30;;;22.10;99.90;;;;;;6022303;23;20494;-72
2022/07/25 01:09:18;;;;;;;11.33;10.50;;;22.10;99.90;;;;;;6024090;23;20437;-72
2022/07/25 01:11:46;;;;;;;11.93;11.03;;;22.10;99.90;;;;;;6025678;23;20437;-72
2022/07/25 01:14:13;;;;;;;11.60;10.70;;;22.10;99.90;;;;;;6020200;23;20448;-72
2022/07/25 01:16:40;;;;;;;10.90;10.10;;;22.00;99.90;;;;;;6024038;23;20472;-72
2022/07/25 01:19:08;;;;;;;11.67;10.90;;;22.00;99.90;;;;;;6019422;23;20451;-72
2022/07/25 01:21:39;;;;;;;10.77;10.07;;;22.00;99.90;;;;;;6024961;23;20511;-72
2022/07/25 01:24:07;;;;;;;11.93;10.87;;;21.90;99.90;;;;;;6021034;23;21006;-72
2022/07/25 01:26:34;;;;;;;11.80;10.80;;;21.90;99.90;;;;;;6021982;23;20850;-72
2022/07/25 01:29:01;;;;;;;11.83;10.90;;;21.90;99.90;;;;;;6020527;23;20848;-72
2022/07/25 01:31:28;;;;;;;12.80;11.90;;;21.90;99.90;;;;;;6023042;23;20467;-72
2022/07/25 01:33:55;;;;;;;12.07;11.17;;;21.80;99.90;;;;;;6020341;23;20476;-72
2022/07/25 01:36:22;;;;;;;12.13;11.23;;;21.80;99.90;;;;;;6022217;23;21038;-72
2022/07/25 01:38:51;;;;;;;12.57;11.70;;;21.80;99.90;;;;;;6024779;23;20494;-71
2022/07/25 01:41:18;;;;;;;11.43;10.63;;;21.70;99.90;;;;;;6025831;23;20764;-71
2022/07/25 01:43:45;;;;;;;12.67;11.87;;;21.70;99.90;;;;;;6023129;23;20816;-72
2022/07/25 01:46:12;;;;;;;12.13;11.33;;;21.60;99.90;;;;;;6023972;23;20445;-72
2022/07/25 01:48:40;;;;;;;12.20;11.30;;;21.60;99.90;;;;;;6019346;23;20648;-71
2022/07/25 01:51:09;;;;;;;13.10;12.00;;;21.60;99.90;;;;;;6020496;23;20461;-72
2022/07/25 01:53:36;;;;;;;13.10;12.10;;;21.60;99.90;;;;;;6021131;23;20453;-71
2022/07/25 01:56:05;;;;;;;13.20;12.27;;;21.60;99.90;;;;;;6022057;23;20567;-72
2022/07/25 01:58:32;;;;;;;12.63;11.63;;;21.50;99.90;;;;;;6021326;23;20443;-71
2022/07/25 02:00:59;;;;;;;12.90;12.00;;;21.50;99.90;;;;;;6022285;23;20498;-72
2022/07/25 02:03:32;;;;;;;12.10;11.30;;;21.50;99.90;;;;;;6028440;23;20463;-71
2022/07/25 02:06:01;;;;;;;12.50;11.60;;;21.50;99.90;;;;;;6019469;23;20865;-71
2022/07/25 02:08:29;;;;;;;13.10;12.10;;;21.40;99.90;;;;;;6021738;23;20471;-71
2022/07/25 02:10:56;;;;;;;13.20;11.83;;;21.40;99.90;;;;;;6024019;23;20446;-72
2022/07/25 02:13:26;;;;;;;12.37;11.57;;;21.40;99.90;;;;;;6022661;23;20555;-72
2022/07/25 02:15:53;;;;;;;13.37;12.27;;;21.40;99.90;;;;;;6016456;23;20551;-72
2022/07/25 02:18:21;;;;;;;13.20;12.30;;;21.40;99.90;;;;;;6021456;23;20847;-72
2022/07/25 02:20:47;;;;;;;12.27;11.30;;;21.30;99.90;;;;;;6021670;23;20436;-72
2022/07/25 02:23:15;;;;;;;12.10;11.30;;;21.30;99.90;;;;;;6023515;23;20974;-73
2022/07/25 02:25:42;;;;;;;12.57;11.53;;;21.20;99.90;;;;;;6023692;23;20436;-71
2022/07/25 02:28:09;;;;;;;12.10;11.20;;;21.20;99.90;;;;;;6020885;23;20433;-72
2022/07/25 02:30:37;;;;;;;12.20;11.30;;;21.10;99.90;;;;;;6017636;23;20468;-72
2022/07/25 02:33:04;;;;;;;13.50;12.50;;;21.10;99.90;;;;;;6028263;23;20492;-72
2022/07/25 02:35:31;;;;;;;13.07;12.17;;;21.10;99.90;;;;;;6021414;23;20560;-72
2022/07/25 02:37:59;;;;;;;13.20;12.10;;;21.10;99.90;;;;;;6023238;23;20436;-72
2022/07/25 02:40:27;;;;;;;12.47;11.57;;;21.00;99.90;;;;;;6021969;23;20440;-71
2022/07/25 02:42:54;;;;;;;13.63;12.53;;;21.00;99.90;;;;;;6022028;23;20456;-72
2022/07/25 02:45:21;;;;;;;13.57;12.57;;;21.00;99.90;;;;;;6023924;23;20893;-72
2022/07/25 02:47:50;;;;;;;12.83;11.80;;;20.90;99.90;;;;;;6024465;23;20444;-71
2022/07/25 02:50:17;;;;;;;12.90;12.00;;;20.90;99.90;;;;;;6021625;23;20432;-71
2022/07/25 02:52:44;;;;;;;12.27;11.37;;;20.90;99.90;;;;;;6020483;23;20464;-72
2022/07/25 02:55:12;;;;;;;13.23;12.20;;;20.90;99.90;;;;;;6023119;23;20490;-72
2022/07/25 02:57:39;;;;;;;12.97;12.07;;;20.90;99.90;;;;;;6015875;23;20471;-72
2022/07/25 03:00:07;;;;;;;13.07;12.17;;;20.80;99.90;;;;;;6020263;23;20441;-72
2022/07/25 03:02:34;;;;;;;12.90;12.00;;;20.80;99.90;;;;;;6022071;23;20449;-72
2022/07/25 03:05:06;;;;;;;12.70;11.80;;;20.80;99.90;;;;;;6023896;23;20433;-72
2022/07/25 03:07:33;;;;;;;13.20;12.20;;;20.80;99.90;;;;;;6022560;23;20538;-72
2022/07/25 03:10:00;;;;;;;12.13;11.33;;;20.80;99.90;;;;;;6022702;23;20440;-72
2022/07/25 03:12:27;;;;;;;12.50;11.57;;;20.80;99.90;;;;;;6021833;23;20508;-72
2022/07/25 03:14:54;;;;;;;13.17;12.13;;;20.80;99.90;;;;;;6023789;23;20464;-71
2022/07/25 03:17:21;;;;;;;12.67;11.70;;;20.80;99.90;;;;;;6022087;23;20474;-72
2022/07/25 03:19:48;;;;;;;13.30;12.20;;;20.80;99.90;;;;;;6022403;23;20473;-72
2022/07/25 03:22:17;;;;;;;13.30;12.30;;;20.80;99.90;;;;;;6024185;23;20557;-71
2022/07/25 03:24:44;;;;;;;12.50;11.50;;;20.70;99.90;;;;;;6023929;23;20511;-71
2022/07/25 03:27:11;;;;;;;12.63;11.73;;;20.70;99.90;;;;;;6024486;23;20475;-71
2022/07/25 03:29:38;;;;;;;12.90;12.00;;;20.70;99.90;;;;;;6021873;23;20432;-71
2022/07/25 03:32:06;;;;;;;12.33;11.30;;;20.70;99.90;;;;;;6020418;23;20452;-72
2022/07/25 03:34:34;;;;;;;13.87;12.87;;;20.70;99.90;;;;;;6021810;23;20444;-72
2022/07/25 03:37:01;;;;;;;13.07;12.17;;;20.70;99.90;;;;;;6025461;23;20468;-72
2022/07/25 03:39:30;;;;;;;13.77;12.77;;;20.70;99.90;;;;;;6019905;23;20444;-71
2022/07/25 03:41:57;;;;;;;13.37;12.47;;;20.60;99.90;;;;;;6024306;23;20460;-73
2022/07/25 03:44:25;;;;;;;13.17;12.23;;;20.60;99.90;;;;;;6023087;23;20468;-72
2022/07/25 03:46:52;;;;;;;13.23;12.30;;;20.60;99.90;;;;;;6021257;23;20442;-72
2022/07/25 03:49:19;;;;;;;13.37;12.37;;;20.60;99.90;;;;;;6022811;23;20441;-72
2022/07/25 03:51:46;;;;;;;13.20;12.20;;;20.60;99.90;;;;;;6018372;23;20543;-73
2022/07/25 03:54:14;;;;;;;13.47;12.20;;;20.60;99.90;;;;;;6019692;23;20777;-72
2022/07/25 03:56:45;;;;;;;14.40;12.90;;;20.60;99.90;;;;;;6020180;23;20467;-72
2022/07/25 03:59:15;;;;;;;12.47;11.47;;;20.60;99.90;;;;;;6021016;23;20475;-72
2022/07/25 04:01:43;;;;;;;13.17;12.23;;;20.60;99.90;;;;;;6024751;23;20526;-72
2022/07/25 04:04:10;;;;;;;12.73;11.80;;;20.60;99.90;;;;;;6023282;23;20459;-72
2022/07/25 04:06:39;;;;;;;14.60;13.37;;;20.60;99.90;;;;;;6029619;23;20443;-72
2022/07/25 04:09:07;;;;;;;12.77;11.87;;;20.60;99.90;;;;;;6023575;23;20927;-73
2022/07/25 04:11:34;;;;;;;12.33;11.43;;;20.60;99.90;;;;;;6019706;23;20489;-72
2022/07/25 04:14:04;;;;;;;12.97;12.07;;;20.70;99.90;;;;;;6023088;23;20445;-72
2022/07/25 04:16:31;;;;;;;12.67;11.73;;;20.70;99.90;;;;;;6022883;23;20498;-72
2022/07/25 04:18:58;;;;;;;12.43;11.57;;;20.80;99.90;;;;;;6020224;23;21005;-72
2022/07/25 04:21:26;;;;;;;13.90;12.80;;;20.80;99.90;;;;;;6017760;23;20542;-72
2022/07/25 04:23:53;;;;;;;12.60;11.70;;;20.90;99.90;;;;;;6023803;23;20515;-72
2022/07/25 04:26:20;;;;;;;13.30;12.30;;;20.90;99.90;;;;;;6021054;23;20445;-72
2022/07/25 04:28:48;;;;;;;12.57;11.67;;;20.90;99.90;;;;;;6024784;23;20467;-72
2022/07/25 04:31:16;;;;;;;13.17;12.17;;;21.00;99.90;;;;;;6017619;23;20490;-72
2022/07/25 04:33:44;;;;;;;13.40;12.10;;;20.90;99.90;;;;;;6024245;23;20518;-72
2022/07/25 04:36:11;;;;;;;13.17;12.17;;;21.00;99.90;;;;;;6022241;23;20464;-72
2022/07/25 04:38:38;;;;;;;13.43;12.33;;;21.00;99.90;;;;;;6023484;23;20434;-72
2022/07/25 04:41:05;;;;;;;13.23;12.27;;;21.00;99.90;;;;;;6020280;23;20460;-73
2022/07/25 04:43:32;;;;;;;14.07;12.97;;;21.00;99.90;;;;;;6024247;23;20498;-72
2022/07/25 04:46:00;;;;;;;13.27;12.37;;;21.10;99.90;;;;;;6021885;23;20437;-72
2022/07/25 04:48:28;;;;;;;13.57;12.47;;;21.10;99.90;;;;;;6022209;23;20435;-70
2022/07/25 04:50:55;;;;;;;13.20;12.27;;;21.30;99.90;;;;;;6020444;23;20464;-71
2022/07/25 04:53:23;;;;;;;13.63;12.53;;;21.20;99.90;;;;;;6019653;23;20437;-71
2022/07/25 04:55:50;;;;;;;14.50;13.40;;;21.20;99.90;;;;;;6020390;23;20452;-72
2022/07/25 04:58:17;;;;;;;13.27;12.23;;;21.20;99.90;;;;;;6033607;23;20448;-83
2022/07/25 05:00:44;;;;;;;13.83;12.73;;;21.20;99.90;;;;;;6020331;23;20459;-74
2022/07/25 05:03:11;;;;;;;13.87;12.87;;;21.30;99.90;;;;;;6020183;23;20440;-73
2022/07/25 05:05:40;;;;;;;14.43;13.40;;;21.30;99.90;;;;;;6019491;23;20787;-74
2022/07/25 05:08:07;;;;;;;14.00;12.90;;;21.30;99.90;;;;;;6021240;23;20979;-74
2022/07/25 05:10:34;;;;;;;13.80;12.67;;;21.40;99.90;;;;;;6019864;23;20460;-73
2022/07/25 05:13:01;;;;;;;13.40;12.40;;;21.40;99.90;;;;;;6018934;23;20461;-74
2022/07/25 05:15:28;;;;;;;14.43;13.33;;;21.50;99.90;;;;;;6019122;23;20441;-74
2022/07/25 05:17:55;;;;;;;13.20;12.20;;;21.50;99.90;;;;;;6018588;23;20579;-74
2022/07/25 05:20:22;;;;;;;14.43;13.33;;;21.60;99.90;;;;;;6021149;23;20456;-74
2022/07/25 05:22:50;;;;;;;13.77;12.70;;;21.70;99.90;;;;;;6020859;23;20443;-74
2022/07/25 05:25:18;;;;;;;13.50;12.50;;;21.70;99.90;;;;;;6019379;23;20520;-74
2022/07/25 05:27:45;;;;;;;14.03;12.90;;;21.80;99.90;;;;;;6003568;23;20477;-75
2022/07/25 05:30:14;;;;;;;14.43;13.33;;;21.80;99.90;;;;;;6016179;23;20469;-74
2022/07/25 05:32:42;;;;;;;13.07;12.07;;;21.90;99.90;;;;;;6014292;23;20491;-74
2022/07/25 05:35:10;;;;;;;14.10;12.90;;;21.90;99.90;;;;;;6008819;23;20445;-74
2022/07/25 05:37:37;;;;;;;14.77;13.47;;;22.00;99.90;;;;;;6011923;23;20472;-74
2022/07/25 05:40:07;;;;;;;13.43;12.37;;;22.10;99.90;;;;;;6019966;23;20460;-73
2022/07/25 05:42:34;;;;;;;13.90;12.67;;;22.20;99.90;;;;;;6015271;23;20446;-74
2022/07/25 05:45:02;;;;;;;14.17;13.10;;;22.20;99.90;;;;;;6011649;23;20956;-73
2022/07/25 05:47:29;;;;;;;14.10;13.07;;;22.30;99.90;;;;;;6006332;23;20444;-73
2022/07/25 05:49:56;;;;;;;14.03;12.93;;;22.40;99.90;;;;;;6011519;23;20506;-73
2022/07/25 05:52:23;;;;;;;13.83;12.80;;;22.60;99.90;;;;;;6014332;23;20433;-73
2022/07/25 05:54:50;;;;;;;13.40;12.30;;;22.60;99.90;;;;;;6009328;23;20567;-73
2022/07/25 05:57:19;;;;;;;13.37;12.30;;;22.70;99.90;;;;;;6011410;23;20979;-73
2022/07/25 05:59:46;;;;;;;13.50;12.60;;;22.80;99.90;;;;;;6009953;23;20467;-73
2022/07/25 06:02:13;;;;;;;12.83;11.83;;;22.90;99.90;;;;;;6008067;23;20439;-74
2022/07/25 06:04:40;;;;;;;12.67;11.77;;;23.00;99.90;;;;;;6016554;23;20450;-73
2022/07/25 06:07:07;;;;;;;12.53;11.43;;;23.20;99.90;;;;;;6009738;23;20534;-74
2022/07/25 06:09:34;;;;;;;12.30;11.40;;;23.30;99.90;;;;;;6011040;23;20840;-74
2022/07/25 06:12:01;;;;;;;12.17;11.07;;;23.40;99.90;;;;;;6009511;23;20445;-74
2022/07/25 06:14:29;;;;;;;11.47;10.57;;;23.50;99.90;;;;;;6009559;23;21029;-74
2022/07/25 06:16:57;;;;;;;12.27;11.20;;;23.60;99.90;;;;;;6011523;23;20973;-73
2022/07/25 06:19:24;;;;;;;11.60;10.70;;;23.80;99.90;;;;;;6005592;23;20438;-74
2022/07/25 06:21:51;;;;;;;11.10;10.27;;;23.90;99.90;;;;;;6008246;23;20445;-73
2022/07/25 06:24:19;;;;;;;10.77;10.00;;;23.90;99.90;;;;;;6014961;23;20448;-74
2022/07/25 06:26:46;;;;;;;11.13;10.30;;;24.00;99.90;;;;;;6011188;23;20496;-74
2022/07/25 06:29:13;;;;;;;11.40;10.53;;;24.10;99.90;;;;;;6010718;23;20510;-74
2022/07/25 06:31:41;;;;;;;11.70;10.80;;;24.30;99.90;;;;;;6009095;23;20997;-74
2022/07/25 06:34:09;;;;;;;11.10;10.20;;;24.30;99.90;;;;;;6004698;23;20440;-74
2022/07/25 06:36:36;;;;;;;12.20;11.40;;;24.40;99.90;;;;;;6007757;23;20476;-73
2022/07/25 06:39:03;;;;;;;11.10;10.30;;;24.50;99.90;;;;;;6011120;23;20464;-74
2022/07/25 06:41:30;;;;;;;11.43;10.60;;;24.60;99.90;;;;;;6007575;23;20436;-74
2022/07/25 06:43:57;;;;;;;11.47;10.50;;;24.70;99.90;;;;;;6008996;23;20524;-74
2022/07/25 06:46:28;;;;;;;11.27;10.37;;;24.70;99.90;;;;;;6009894;23;20476;-74
2022/07/25 06:48:57;;;;;;;10.53;9.83;;;24.90;99.90;;;;;;6007260;23;20441;-74
2022/07/25 06:51:24;;;;;;;11.10;10.40;;;25.00;99.90;;;;;;6010743;23;20491;-73
2022/07/25 06:53:51;;;;;;;10.63;9.83;;;25.10;99.90;;;;;;6009682;23;20453;-74
2022/07/25 06:56:19;;;;;;;10.80;10.00;;;25.20;99.90;;;;;;6011657;23;20443;-74
2022/07/25 06:58:46;;;;;;;11.27;10.43;;;25.30;99.90;;;;;;6007394;23;20463;-74
2022/07/25 07:01:13;;;;;;;11.70;10.80;;;25.40;99.90;;;;;;6010467;23;20527;-74
2022/07/25 07:03:40;;;;;;;10.40;9.60;;;25.50;99.90;;;;;;6008320;23;20449;-74
2022/07/25 07:06:09;;;;;;;11.43;10.63;;;25.70;99.90;;;;;;6006803;23;20890;-74
2022/07/25 07:08:36;;;;;;;10.40;9.70;;;25.80;99.90;;;;;;6016041;23;20440;-73
2022/07/25 07:11:04;;;;;;;11.00;10.00;;;25.90;99.90;;;;;;6006510;23;20472;-74
2022/07/25 07:13:31;;;;;;;11.00;10.20;;;26.00;99.90;;;;;;6007311;23;20488;-74
2022/07/25 07:15:58;;;;;;;11.40;10.47;;;26.20;99.90;;;;;;6012991;23;20436;-74
2022/07/25 07:18:25;;;;;;;10.47;9.73;;;26.30;99.90;;;;;;6004687;23;20469;-74
2022/07/25 07:20:52;;;;;;;10.80;10.00;;;26.50;99.90;;;;;;6005654;23;20433;-75
2022/07/25 07:23:21;;;;;;;11.23;10.23;;;26.70;99.90;;;;;;6010381;23;21737;-74
2022/07/25 07:25:48;;;;;;;11.20;10.20;;;26.90;99.90;;;;;;6006304;23;20523;-74
2022/07/25 07:28:15;;;;;;;10.40;9.60;;;27.00;99.90;;;;;;6005758;23;20440;-74
2022/07/25 07:30:43;;;;;;;11.43;10.57;;;27.30;99.90;;;;;;6015136;23;20468;-75
2022/07/25 07:33:10;;;;;;;10.60;9.93;;;27.40;99.90;;;;;;6015185;23;20475;-74
2022/07/25 07:35:37;;;;;;;10.97;10.17;;;27.60;99.90;;;;;;6005619;23;20473;-74
2022/07/25 07:38:04;;;;;;;10.63;9.83;;;27.80;99.90;;;;;;6007142;23;20839;-75
2022/07/25 07:40:32;;;;;;;10.47;9.77;;;27.90;99.90;;;;;;6013563;23;20441;-74
2022/07/25 07:43:02;;;;;;;10.63;9.83;;;28.30;99.90;;;;;;6008539;23;20437;-74
2022/07/25 07:45:30;;;;;;;11.13;10.23;;;28.60;99.90;;;;;;6011845;23;20464;-73
2022/07/25 07:47:58;;;;;;;10.90;10.10;;;29.00;99.90;;;;;;6016381;23;20464;-74
2022/07/25 07:50:26;;;;;;;11.27;10.37;;;29.20;99.90;;;;;;6011008;23;20444;-74
2022/07/25 07:52:55;;;;;;;10.83;10.03;;;29.40;99.80;;;;;;6013660;23;20475;-74
2022/07/25 07:58:09;;;;;;;11.10;10.37;;;29.80;99.40;;;;;;6009049;23;20483;-74
2022/07/25 08:00:38;;;;;;;11.13;10.30;;;30.30;98.20;;;;;;6018192;23;20440;-74
2022/07/25 08:03:07;;;;;;;10.87;10.10;;;30.30;98.40;;;;;;6016672;23;20457;-74
2022/07/25 08:05:37;;;;;;;11.07;10.30;;;30.70;96.90;;;;;;6012864;23;20457;-74
2022/07/25 08:08:05;;;;;;;12.10;11.20;;;30.90;96.90;;;;;;6010505;23;20441;-74
2022/07/25 08:10:35;;;;;;;11.23;10.53;;;31.00;95.80;;;;;;6009469;23;20453;-75
2022/07/25 08:13:11;;;;;;;11.33;10.60;;;31.10;95.40;;;;;;6012303;23;20483;-75
2022/07/25 08:15:40;;;;;;;10.67;10.07;;;31.20;94.60;;;;;;6009906;23;20535;-74
2022/07/25 08:18:07;;;;;;;10.97;10.27;;;31.30;94.20;;;;;;6010547;23;20534;-75
2022/07/25 08:20:35;;;;;;;11.33;10.33;;;31.40;94.30;;;;;;6008257;23;22562;-75
2022/07/25 08:23:03;;;;;;;11.57;10.77;;;31.60;95.00;;;;;;6007765;23;20487;-75
2022/07/25 08:25:30;;;;;;;11.27;10.57;;;31.80;93.30;;;;;;6013138;23;20456;-75
2022/07/25 08:27:58;;;;;;;11.70;10.90;;;32.20;92.70;;;;;;6013389;23;20440;-75
2022/07/25 08:30:26;;;;;;;11.10;10.43;;;32.50;92.30;;;;;;6007760;23;21933;-75
2022/07/25 08:32:56;;;;;;;10.47;9.77;;;32.70;91.20;;;;;;6007280;23;20525;-75
2022/07/25 08:35:25;;;;;;;11.77;10.80;;;33.00;91.20;;;;;;6006956;23;20509;-75
2022/07/25 08:37:54;;;;;;;10.13;9.40;;;33.30;90.50;;;;;;6009557;23;20464;-75
2022/07/25 08:40:22;;;;;;;10.77;10.07;;;33.50;89.90;;;;;;6015041;23;20868;-75
2022/07/25 08:42:50;;;;;;;11.50;10.60;;;33.50;88.20;;;;;;6024361;23;20864;-75
2022/07/25 08:45:19;;;;;;;10.97;10.10;;;33.50;88.20;;;;;;6020672;23;20471;-75
2022/07/25 08:47:47;;;;;;;10.10;9.40;;;33.80;88.00;;;;;;6011383;23;20440;-75
2022/07/25 08:50:17;;;;;;;10.50;9.80;;;34.30;86.20;;;;;;6010569;23;20465;-75
2022/07/25 08:52:46;;;;;;;11.03;10.30;;;34.90;83.70;;;;;;6015220;23;20518;-75
2022/07/25 08:55:15;;;;;;;9.70;9.10;;;35.50;78.90;;;;;;6013310;23;20856;-75
2022/07/25 08:57:43;;;;;;;10.70;10.00;;;36.00;78.80;;;;;;6013495;23;20476;-76
2022/07/25 09:00:12;;;;;;;10.43;9.63;;;36.50;75.00;;;;;;6013403;23;20445;-75
2022/07/25 09:02:39;;;;;;;10.30;9.43;;;36.50;74.30;;;;;;6016819;23;20436;-75
2022/07/25 09:05:07;;;;;;;10.90;10.10;;;36.80;72.30;;;;;;6015485;23;20464;-75
2022/07/25 09:07:37;;;;;;;10.10;9.37;;;37.00;70.10;;;;;;6020416;23;20520;-75
2022/07/25 09:10:15;;;;;;;8.97;8.47;;;37.20;68.50;;;;;;6027446;23;20490;-75
2022/07/25 09:12:50;;;;;;;9.40;8.57;;;37.10;64.40;;;;;;6013872;23;20835;-74
2022/07/25 09:15:24;;;;;;;8.90;8.30;;;36.90;61.20;;;;;;6012063;23;20453;-74
2022/07/25 09:17:51;;;;;;;8.90;8.40;;;36.10;62.20;;;;;;6023807;23;20460;-75
2022/07/25 09:20:20;;;;;;;8.67;8.07;;;35.90;62.50;;;;;;6009627;23;20789;-75
2022/07/25 09:22:48;;;;;;;8.77;8.27;;;35.80;62.30;;;;;;6010531;23;20445;-74
2022/07/25 09:25:25;;;;;;;8.87;8.37;;;35.60;62.60;;;;;;6011113;23;20534;-75
2022/07/25 09:27:52;;;;;;;10.13;9.43;;;35.90;64.00;;;;;;6017515;23;20437;-75
2022/07/25 09:30:20;;;;;;;10.00;9.20;;;36.40;63.90;;;;;;6024152;23;20445;-76
2022/07/25 09:32:47;;;;;;;9.70;9.00;;;36.80;62.10;;;;;;6015113;23;20437;-75
2022/07/25 09:35:14;;;;;;;9.77;8.97;;;37.20;61.10;;;;;;6021858;23;20461;-75
2022/07/25 09:37:41;;;;;;;9.10;8.50;;;37.60;61.20;;;;;;6012824;23;20460;-75
2022/07/25 09:40:15;;;;;;;9.37;8.57;;;38.20;59.70;;;;;;6007046;23;20472;-75
2022/07/25 09:42:45;;;;;;;9.53;9.03;;;38.70;59.10;;;;;;6010267;23;20514;-75
2022/07/25 09:45:14;;;;;;;8.93;8.43;;;39.20;57.80;;;;;;6014715;23;20437;-75
2022/07/25 09:47:53;;;;;;;8.63;8.03;;;39.60;56.30;;;;;;6014017;23;20840;-75
2022/07/25 09:50:22;;;;;;;9.00;8.40;;;39.80;55.90;;;;;;6013200;23;20531;-75
2022/07/25 09:52:51;;;;;;;9.47;8.87;;;40.00;55.10;;;;;;6023839;23;20483;-75
2022/07/25 09:55:20;;;;;;;8.83;8.23;;;40.30;54.10;;;;;;6010293;23;20437;-75
2022/07/25 09:57:47;;;;;;;8.77;8.27;;;40.70;53.10;;;;;;6018140;23;20506;-75
2022/07/25 10:00:16;;;;;;;8.70;8.20;;;40.80;52.30;;;;;;6005642;23;20433;-74
2022/07/25 10:03:05;;;;;;;9.13;8.53;;;40.50;51.60;;;;;;6011150;23;20928;-75
2022/07/25 10:05:46;;;;;;;9.10;8.50;;;40.40;52.40;;;;;;6012095;23;20532;-77
2022/07/25 10:08:14;;;;;;;8.63;8.03;;;40.30;52.00;;;;;;6006290;23;20440;-75
2022/07/25 10:10:42;;;;;;;8.20;7.70;;;40.50;52.20;;;;;;6010763;23;20477;-78
2022/07/25 10:13:12;;;;;;;8.13;7.63;;;40.80;51.80;;;;;;6019412;23;20571;-74
2022/07/25 10:15:42;;;;;;;8.10;7.50;;;41.10;51.60;;;;;;6011173;23;20517;-74
2022/07/25 10:18:09;;;;;;;7.90;7.40;;;41.50;50.00;;;;;;6011652;23;20464;-75
2022/07/25 10:20:37;;;;;;;8.47;7.90;;;41.80;49.70;;;;;;6007641;23;20441;-75
2022/07/25 10:23:04;;;;;;;8.40;8.00;;;42.20;49.10;;;;;;6008972;23;20523;-75
2022/07/25 10:25:32;;;;;;;7.63;7.23;;;42.20;48.50;;;;;;6009070;23;20437;-76
2022/07/25 10:28:08;;;;;;;8.53;7.93;;;42.20;48.90;;;;;;6023639;23;20495;-78
2022/07/25 10:30:39;;;;;;;8.27;7.77;;;42.50;48.40;;;;;;6007835;23;20508;-77
2022/07/25 10:33:14;;;;;;;8.00;7.60;;;42.40;48.30;;;;;;6017676;23;20507;-77
2022/07/25 10:35:42;;;;;;;8.00;7.30;;;42.50;47.80;;;;;;6007905;23;20437;-80
2022/07/25 10:38:10;;;;;;;7.27;6.80;;;42.30;45.70;;;;;;6006805;23;20468;-76
2022/07/25 10:40:39;;;;;;;7.80;7.20;;;41.70;46.70;;;;;;6010620;23;20445;-76
2022/07/25 10:43:13;;;;;;;7.33;6.80;;;41.50;47.10;;;;;;6011050;23;20465;-76
2022/07/25 10:45:48;;;;;;;7.80;7.30;;;41.40;46.70;;;;;;6012256;23;20867;-80
2022/07/25 10:48:22;;;;;;;8.07;7.37;;;41.50;46.70;;;;;;6014986;23;20453;-77
2022/07/25 10:50:52;;;;;;;7.43;7.03;;;41.50;46.20;;;;;;6011588;23;20441;-77
2022/07/25 10:53:33;;;;;;;8.20;7.67;;;41.40;46.40;;;;;;6007226;23;20564;-77
2022/07/25 10:56:05;;;;;;;7.57;7.13;;;40.50;47.10;;;;;;6008146;23;20433;-77
2022/07/25 10:58:49;;;;;;;7.67;7.10;;;40.20;47.20;;;;;;6010957;23;20816;-78
2022/07/25 11:01:21;;;;;;;6.77;6.37;;;40.10;48.10;;;;;;6015761;23;20439;-80
2022/07/25 11:03:49;;;;;;;7.27;6.80;;;40.20;47.20;;;;;;6013362;23;21036;-79
2022/07/25 11:06:17;;;;;;;6.50;6.00;;;40.50;46.40;;;;;;6010692;23;20885;-78
2022/07/25 11:08:44;;;;;;;6.57;6.17;;;40.60;45.90;;;;;;6009188;23;20512;-81
2022/07/25 11:11:12;;;;;;;6.67;6.27;;;40.80;46.00;;;;;;6015554;23;20449;-81
2022/07/25 11:13:41;;;;;;;6.73;6.33;;;41.10;44.80;;;;;;6010647;23;20456;-80
2022/07/25 11:16:10;;;;;;;7.00;6.50;;;40.90;45.40;;;;;;6013848;23;20459;-79
2022/07/25 11:18:39;;;;;;;7.00;6.60;;;41.10;45.00;;;;;;6012700;23;20503;-81
2022/07/25 11:21:08;;;;;;;6.90;6.50;;;41.40;45.40;;;;;;6014334;23;20480;-77
2022/07/25 11:23:36;;;;;;;6.97;6.47;;;41.40;45.00;;;;;;6019796;23;20442;-76
2022/07/25 11:26:08;;;;;;;6.93;6.53;;;41.50;45.00;;;;;;6009069;23;20467;-77
2022/07/25 11:28:39;;;;;;;6.53;6.13;;;41.80;44.50;;;;;;6010411;23;20473;-77
2022/07/25 11:31:08;;;;;;;6.60;6.20;;;41.90;43.80;;;;;;6014186;23;20471;-77
2022/07/25 11:33:37;;;;;;;7.33;6.83;;;41.50;43.60;;;;;;6015518;23;20447;-77
2022/07/25 11:36:05;;;;;;;6.50;6.20;;;41.10;44.60;;;;;;6017973;23;20477;-74
2022/07/25 11:38:33;;;;;;;6.80;6.40;;;41.00;45.30;;;;;;6010906;23;20527;-76
2022/07/25 11:41:00;;;;;;;6.37;5.97;;;41.20;44.60;;;;;;6016527;23;20531;-80
2022/07/25 11:43:28;;;;;;;7.30;6.80;;;41.40;44.30;;;;;;6008402;23;20445;-77
2022/07/25 11:46:00;;;;;;;6.73;6.33;;;41.70;43.90;;;;;;6017794;23;20523;-77
2022/07/25 11:48:32;;;;;;;6.57;6.20;;;41.50;43.50;;;;;;6019426;23;20445;-80
2022/07/25 11:51:11;;;;;;;6.20;5.90;;;41.70;43.70;;;;;;6010876;23;20488;-74
2022/07/25 11:53:44;;;;;;;6.67;6.27;;;41.90;43.50;;;;;;6010061;23;20480;-78
2022/07/25 11:56:19;;;;;;;6.57;6.17;;;42.10;43.10;;;;;;6020234;23;20439;-79
2022/07/25 11:58:58;;;;;;;6.57;6.17;;;42.30;42.80;;;;;;6017477;23;20471;-78
2022/07/25 12:01:33;;;;;;;5.70;5.40;;;42.50;41.90;;;;;;6008017;23;20492;-79
2022/07/25 12:04:08;;;;;;;6.47;6.07;;;42.50;42.70;;;;;;6010883;23;20935;-79
2022/07/25 12:06:38;;;;;;;6.50;6.07;;;42.00;42.30;;;;;;6020583;23;20505;-78
2022/07/25 12:09:16;;;;;;;6.20;5.80;;;41.40;42.40;;;;;;6012746;23;20436;-78
2022/07/25 12:11:44;;;;;;;6.73;6.33;;;40.70;43.40;;;;;;6010880;23;20468;-78
2022/07/25 12:14:12;;;;;;;7.07;6.67;;;40.20;44.00;;;;;;6011552;23;20437;-78
2022/07/25 12:16:39;;;;;;;7.20;6.77;;;39.40;45.20;;;;;;6009177;23;20456;-78
2022/07/25 12:19:10;;;;;;;7.03;6.63;;;39.10;45.80;;;;;;6006613;23;20547;-77
2022/07/25 12:21:38;;;;;;;7.80;7.10;;;39.00;45.90;;;;;;6009328;23;20499;-78
2022/07/25 12:24:06;;;;;;;6.67;6.27;;;39.00;46.00;;;;;;6010812;23;20520;-79
2022/07/25 12:26:34;;;;;;;6.83;6.43;;;39.10;46.10;;;;;;6011164;23;20448;-78
2022/07/25 12:29:01;;;;;;;6.90;6.30;;;39.30;46.10;;;;;;6012853;23;20433;-78
2022/07/25 12:31:28;;;;;;;7.33;6.77;;;39.40;45.80;;;;;;6009307;23;20449;-78
2022/07/25 12:33:55;;;;;;;6.90;6.40;;;39.50;45.80;;;;;;6010258;23;20480;-79
2022/07/25 12:36:22;;;;;;;6.93;6.43;;;39.60;45.60;;;;;;6009754;23;20451;-78
2022/07/25 12:38:52;;;;;;;9.13;6.70;;;39.50;46.10;;;;;;6006856;23;20460;-78
2022/07/25 12:41:21;;;;;;;6.97;6.57;;;39.30;46.10;;;;;;6012741;23;20456;-77